createdAt,value
2018-06-13T00:00:54.688Z,5.78
2018-06-13T00:02:04.511Z,5.30
2018-06-13T00:03:08.472Z,5.65
2018-06-13T00:04:12.733Z,6.22
2018-06-13T00:05:16.950Z,6.22
2018-06-13T00:06:21.236Z,5.70
2018-06-13T00:07:25.521Z,5.90
2018-06-13T00:08:29.814Z,6.45
2018-06-13T00:09:34.152Z,5.70
2018-06-13T00:10:38.438Z,5.42
2018-06-13T00:11:42.833Z,5.65
2018-06-13T00:12:47.379Z,5.37
2018-06-13T00:13:51.839Z,4.90
2018-06-13T00:14:57.170Z,6.12
2018-06-13T00:16:01.629Z,6.20
2018-06-13T00:17:05.874Z,5.30
2018-06-13T00:18:10.181Z,4.45
2018-06-13T00:19:14.427Z,6.62
2018-06-13T00:20:18.627Z,5.95
2018-06-13T00:21:22.830Z,5.95
2018-06-13T00:22:27.371Z,5.58
2018-06-13T00:23:31.682Z,5.90
2018-06-13T00:24:35.912Z,4.90
2018-06-13T00:25:40.430Z,6.17
2018-06-13T00:26:44.683Z,5.37
2018-06-13T00:27:49.128Z,4.75
2018-06-13T00:28:53.625Z,5.55
2018-06-13T00:29:57.820Z,5.22
2018-06-13T00:31:02.100Z,4.75
2018-06-13T00:32:06.594Z,5.05
2018-06-13T00:33:10.847Z,4.72
2018-06-13T00:34:15.121Z,4.95
2018-06-13T00:35:19.464Z,5.50
2018-06-13T00:36:23.707Z,5.37
2018-06-13T00:37:28.075Z,5.17
2018-06-13T00:38:32.537Z,6.03
2018-06-13T00:39:36.916Z,6.25
2018-06-13T00:40:41.145Z,5.08
2018-06-13T00:41:45.485Z,4.87
2018-06-13T00:42:49.786Z,5.35
2018-06-13T00:43:54.052Z,5.03
2018-06-13T00:44:58.375Z,5.60
2018-06-13T00:46:02.820Z,5.00
2018-06-13T00:47:07.646Z,5.83
2018-06-13T00:48:11.853Z,4.67
2018-06-13T00:49:16.036Z,4.92
2018-06-13T00:50:20.263Z,5.35
2018-06-13T00:51:24.524Z,4.92
2018-06-13T00:52:28.908Z,4.05
2018-06-13T00:53:33.133Z,4.40
2018-06-13T00:54:37.375Z,5.20
2018-06-13T00:55:52.885Z,4.50
2018-06-13T00:56:57.250Z,4.33
2018-06-13T00:58:01.759Z,5.60
2018-06-13T00:59:06.017Z,5.08
2018-06-13T01:00:10.287Z,5.12
2018-06-13T01:01:14.563Z,4.17
2018-06-13T01:02:18.821Z,4.72
2018-06-13T01:03:23.077Z,4.70
2018-06-13T01:04:27.257Z,4.87
2018-06-13T01:05:32.171Z,4.65
2018-06-13T01:06:36.491Z,5.10
2018-06-13T01:07:40.770Z,4.28
2018-06-13T01:08:45.040Z,4.22
2018-06-13T01:09:49.527Z,4.85
2018-06-13T01:10:53.807Z,4.95
2018-06-13T01:11:58.157Z,4.58
2018-06-13T01:13:02.417Z,4.47
2018-06-13T01:14:06.633Z,4.85
2018-06-13T01:15:11.535Z,5.00
2018-06-13T01:16:15.899Z,4.58
2018-06-13T01:17:20.316Z,4.08
2018-06-13T01:18:24.547Z,4.45
2018-06-13T01:19:28.941Z,4.50
2018-06-13T01:20:33.152Z,4.47
2018-06-13T01:21:37.393Z,3.42
2018-06-13T01:22:41.739Z,4.53
2018-06-13T01:23:46.151Z,3.87
2018-06-13T01:24:50.367Z,3.80
2018-06-13T01:25:54.950Z,3.90
2018-06-13T01:26:59.305Z,5.40
2018-06-13T01:28:03.527Z,4.10
2018-06-13T01:29:07.924Z,4.00
2018-06-13T01:30:12.370Z,4.28
2018-06-13T01:31:16.810Z,4.05
2018-06-13T01:32:21.056Z,3.70
2018-06-13T01:33:25.293Z,4.60
2018-06-13T01:34:29.615Z,4.12
2018-06-13T01:35:34.077Z,4.62
2018-06-13T01:36:38.401Z,3.80
2018-06-13T01:37:42.626Z,4.10
2018-06-13T01:38:47.085Z,4.12
2018-06-13T01:39:51.397Z,3.87
2018-06-13T01:40:55.712Z,4.15
2018-06-13T01:42:00.201Z,3.67
2018-06-13T01:43:04.488Z,4.15
2018-06-13T01:44:09.412Z,3.75
2018-06-13T01:45:13.669Z,4.05
2018-06-13T01:46:17.886Z,4.28
2018-06-13T01:47:22.113Z,4.17
2018-06-13T01:48:26.372Z,3.80
2018-06-13T01:49:30.832Z,4.72
2018-06-13T01:50:35.056Z,3.90
2018-06-13T01:51:39.329Z,4.10
2018-06-13T01:52:43.696Z,5.70
2018-06-13T01:53:47.947Z,5.05
2018-06-13T01:54:52.517Z,3.50
2018-06-13T01:55:56.931Z,4.08
2018-06-13T01:57:01.570Z,4.05
2018-06-13T01:58:05.749Z,5.28
2018-06-13T01:59:10.010Z,3.62
2018-06-13T02:00:14.496Z,3.77
2018-06-13T02:01:18.716Z,4.03
2018-06-13T02:02:23.046Z,3.65
2018-06-13T02:03:27.263Z,4.25
2018-06-13T02:04:31.583Z,3.80
2018-06-13T02:05:35.887Z,3.77
2018-06-13T02:06:40.263Z,4.78
2018-06-13T02:07:45.214Z,3.20
2018-06-13T02:08:49.527Z,3.90
2018-06-13T02:09:53.715Z,3.67
2018-06-13T02:10:58.076Z,3.67
2018-06-13T02:12:02.579Z,3.80
2018-06-13T02:13:07.022Z,3.42
2018-06-13T02:14:11.304Z,4.37
2018-06-13T02:15:15.785Z,4.42
2018-06-13T02:16:20.066Z,4.65
2018-06-13T02:17:24.432Z,3.47
2018-06-13T02:18:28.894Z,4.28
2018-06-13T02:19:33.458Z,3.92
2018-06-13T02:20:37.668Z,4.00
2018-06-13T02:21:42.090Z,4.08
2018-06-13T02:22:46.366Z,4.15
2018-06-13T02:23:50.692Z,4.33
2018-06-13T02:24:54.912Z,3.65
2018-06-13T02:25:59.577Z,3.95
2018-06-13T02:27:04.195Z,4.37
2018-06-13T02:28:08.456Z,5.78
2018-06-13T02:29:12.788Z,3.95
2018-06-13T02:30:17.063Z,4.78
2018-06-13T02:31:21.362Z,4.22
2018-06-13T02:32:25.749Z,3.62
2018-06-13T02:33:29.943Z,3.70
2018-06-13T02:34:34.290Z,4.25
2018-06-13T02:35:38.745Z,4.42
2018-06-13T02:36:42.983Z,3.83
2018-06-13T02:37:47.242Z,4.00
2018-06-13T02:38:51.561Z,4.35
2018-06-13T02:39:55.899Z,4.45
2018-06-13T02:41:00.635Z,4.20
2018-06-13T02:42:05.104Z,4.12
2018-06-13T02:43:09.432Z,4.00
2018-06-13T02:44:13.693Z,4.15
2018-06-13T02:45:17.977Z,4.50
2018-06-13T02:46:22.404Z,4.10
2018-06-13T02:47:26.737Z,4.20
2018-06-13T02:48:31.076Z,4.40
2018-06-13T02:49:35.328Z,4.42
2018-06-13T02:50:39.640Z,4.05
2018-06-13T02:51:44.032Z,4.50
2018-06-13T02:52:48.515Z,4.00
2018-06-13T02:53:52.820Z,3.65
2018-06-13T02:54:57.411Z,4.35
2018-06-13T02:56:02.034Z,4.33
2018-06-13T02:57:06.614Z,4.15
2018-06-13T02:58:10.973Z,4.40
2018-06-13T02:59:15.492Z,4.62
2018-06-13T03:00:19.777Z,4.35
2018-06-13T03:01:24.176Z,5.15
2018-06-13T03:02:28.501Z,4.40
2018-06-13T03:03:32.873Z,3.98
2018-06-13T03:04:37.284Z,4.35
2018-06-13T03:05:41.796Z,5.25
2018-06-13T03:06:46.025Z,4.37
2018-06-13T03:07:50.282Z,4.40
2018-06-13T03:08:54.503Z,3.80
2018-06-13T03:09:59.040Z,4.12
2018-06-13T03:11:03.305Z,3.95
2018-06-13T03:12:07.576Z,4.35
2018-06-13T03:13:11.993Z,5.10
2018-06-13T03:14:16.320Z,4.22
2018-06-13T03:15:20.880Z,4.80
2018-06-13T03:16:25.196Z,4.22
2018-06-13T03:17:29.649Z,4.85
2018-06-13T03:18:34.160Z,5.12
2018-06-13T03:19:38.444Z,4.92
2018-06-13T03:20:42.854Z,4.70
2018-06-13T03:21:47.156Z,4.08
2018-06-13T03:22:51.437Z,4.92
2018-06-13T03:23:56.100Z,4.67
2018-06-13T03:25:00.373Z,4.10
2018-06-13T03:26:05.182Z,5.33
2018-06-13T03:27:09.423Z,3.92
2018-06-13T03:28:13.707Z,4.03
2018-06-13T03:29:18.098Z,4.70
2018-06-13T03:30:22.462Z,4.45
2018-06-13T03:31:26.840Z,3.75
2018-06-13T03:32:31.154Z,3.65
2018-06-13T03:33:35.419Z,4.33
2018-06-13T03:34:39.773Z,4.00
2018-06-13T03:35:43.996Z,4.62
2018-06-13T03:36:48.324Z,4.33
2018-06-13T03:37:52.575Z,4.50
2018-06-13T03:38:56.795Z,4.60
2018-06-13T03:40:01.060Z,4.70
2018-06-13T03:41:05.979Z,4.28
2018-06-13T03:42:10.558Z,3.98
2018-06-13T03:43:15.047Z,4.90
2018-06-13T03:44:19.309Z,4.45
2018-06-13T03:45:23.726Z,4.12
2018-06-13T03:46:27.957Z,5.00
2018-06-13T03:47:32.263Z,4.20
2018-06-13T03:48:36.581Z,4.70
2018-06-13T03:49:41.339Z,4.53
2018-06-13T03:50:45.596Z,4.67
2018-06-13T03:51:49.825Z,3.98
2018-06-13T03:52:54.255Z,4.80
2018-06-13T03:53:58.472Z,4.40
2018-06-13T03:55:02.797Z,4.55
2018-06-13T03:56:07.176Z,4.20
2018-06-13T03:57:11.406Z,4.47
2018-06-13T03:58:16.097Z,4.17
2018-06-13T03:59:20.401Z,5.50
2018-06-13T04:00:24.699Z,4.80
2018-06-13T04:01:29.309Z,4.87
2018-06-13T04:02:33.712Z,5.10
2018-06-13T04:03:38.106Z,4.80
2018-06-13T04:04:42.636Z,5.97
2018-06-13T04:05:46.955Z,5.40
2018-06-13T04:06:51.752Z,4.50
2018-06-13T04:07:56.249Z,5.03
2018-06-13T04:09:00.689Z,4.90
2018-06-13T04:10:05.143Z,5.37
2018-06-13T04:11:09.780Z,5.60
2018-06-13T04:12:14.120Z,5.03
2018-06-13T04:13:18.469Z,5.20
2018-06-13T04:14:23.028Z,5.37
2018-06-13T04:15:27.870Z,5.03
2018-06-13T04:16:32.118Z,4.10
2018-06-13T04:17:36.761Z,5.20
2018-06-13T04:18:41.030Z,4.70
2018-06-13T04:19:45.269Z,5.50
2018-06-13T04:20:49.524Z,4.40
2018-06-13T04:21:53.766Z,4.83
2018-06-13T04:22:58.035Z,4.92
2018-06-13T04:24:02.722Z,4.55
2018-06-13T04:25:07.034Z,4.58
2018-06-13T04:26:11.274Z,5.28
2018-06-13T04:27:15.649Z,6.15
2018-06-13T04:28:20.129Z,4.97
2018-06-13T04:29:24.492Z,4.65
2018-06-13T04:30:28.747Z,6.17
2018-06-13T04:31:33.216Z,5.03
2018-06-13T04:32:37.488Z,4.92
2018-06-13T04:33:41.690Z,5.15
2018-06-13T04:34:45.990Z,5.67
2018-06-13T04:35:50.310Z,5.20
2018-06-13T04:36:54.724Z,4.90
2018-06-13T04:37:58.977Z,5.12
2018-06-13T04:39:03.576Z,4.67
2018-06-13T04:40:08.007Z,4.47
2018-06-13T04:41:12.348Z,4.67
2018-06-13T04:42:16.618Z,5.40
2018-06-13T04:43:21.035Z,4.65
2018-06-13T04:44:25.443Z,4.75
2018-06-13T04:45:29.847Z,4.35
2018-06-13T04:46:34.345Z,4.40
2018-06-13T04:47:38.723Z,4.30
2018-06-13T04:48:42.949Z,4.45
2018-06-13T04:49:47.163Z,5.25
2018-06-13T04:50:51.397Z,5.05
2018-06-13T04:51:55.733Z,4.85
2018-06-13T04:53:00.163Z,4.53
2018-06-13T04:54:04.628Z,5.22
2018-06-13T04:55:08.958Z,4.35
2018-06-13T04:56:13.284Z,4.12
2018-06-13T04:57:17.748Z,4.08
2018-06-13T04:58:22.108Z,4.33
2018-06-13T04:59:26.492Z,4.10
2018-06-13T05:00:30.967Z,5.05
2018-06-13T05:01:35.307Z,4.33
2018-06-13T05:02:39.819Z,4.58
2018-06-13T05:03:44.136Z,4.60
2018-06-13T05:04:48.554Z,4.50
2018-06-13T05:05:52.905Z,5.22
2018-06-13T05:06:57.398Z,4.25
2018-06-13T05:08:01.763Z,4.45
2018-06-13T05:09:07.811Z,5.22
2018-06-13T05:10:12.067Z,3.90
2018-06-13T05:11:16.481Z,4.60
2018-06-13T05:12:21.208Z,4.55
2018-06-13T05:13:25.613Z,4.40
2018-06-13T05:14:31.459Z,4.45
2018-06-13T05:15:36.207Z,4.62
2018-06-13T05:16:40.565Z,5.05
2018-06-13T05:17:45.214Z,4.60
2018-06-13T05:18:49.694Z,4.40
2018-06-13T05:19:53.916Z,5.08
2018-06-13T05:20:58.467Z,4.05
2018-06-13T05:22:02.903Z,4.08
2018-06-13T05:23:07.291Z,4.40
2018-06-13T05:24:11.634Z,4.70
2018-06-13T05:25:15.893Z,4.10
2018-06-13T05:26:20.149Z,4.80
2018-06-13T05:27:24.904Z,4.53
2018-06-13T05:28:29.331Z,4.90
2018-06-13T05:29:33.878Z,3.62
2018-06-13T05:30:38.266Z,4.67
2018-06-13T05:31:42.664Z,4.42
2018-06-13T05:32:47.101Z,4.30
2018-06-13T05:33:51.644Z,5.25
2018-06-13T05:34:56.435Z,4.95
2018-06-13T05:36:01.133Z,4.33
2018-06-13T05:37:05.920Z,4.60
2018-06-13T05:38:10.414Z,4.80
2018-06-13T05:39:14.752Z,4.53
2018-06-13T05:40:19.552Z,3.85
2018-06-13T05:41:23.886Z,4.90
2018-06-13T05:42:28.255Z,4.97
2018-06-13T05:43:32.481Z,4.80
2018-06-13T05:44:36.799Z,5.00
2018-06-13T05:45:41.538Z,4.67
2018-06-13T05:46:46.132Z,4.25
2018-06-13T05:47:50.769Z,4.45
2018-06-13T05:48:55.413Z,4.62
2018-06-13T05:49:59.682Z,4.65
2018-06-13T05:51:04.121Z,3.90
2018-06-13T05:52:08.529Z,4.12
2018-06-13T05:53:13.078Z,5.08
2018-06-13T05:54:17.766Z,4.75
2018-06-13T05:55:22.185Z,4.20
2018-06-13T05:56:26.691Z,4.40
2018-06-13T05:57:31.095Z,4.55
2018-06-13T05:58:35.340Z,4.58
2018-06-13T05:59:39.842Z,4.65
2018-06-13T06:00:44.555Z,4.50
2018-06-13T06:01:49.139Z,4.05
2018-06-13T06:02:54.005Z,4.50
2018-06-13T06:03:58.426Z,4.12
2018-06-13T06:05:02.852Z,4.45
2018-06-13T06:06:07.117Z,4.00
2018-06-13T06:07:11.402Z,5.08
2018-06-13T06:08:15.693Z,4.05
2018-06-13T06:09:19.937Z,4.60
2018-06-13T06:10:24.325Z,4.12
2018-06-13T06:11:28.647Z,4.65
2018-06-13T06:12:32.993Z,4.35
2018-06-13T06:13:37.328Z,4.58
2018-06-13T06:14:41.555Z,4.12
2018-06-13T06:15:46.270Z,5.00
2018-06-13T06:16:50.579Z,4.67
2018-06-13T06:17:54.900Z,4.40
2018-06-13T06:18:59.152Z,4.40
2018-06-13T06:20:03.347Z,4.12
2018-06-13T06:21:07.737Z,4.00
2018-06-13T06:22:12.152Z,4.28
2018-06-13T06:23:16.441Z,4.80
2018-06-13T06:24:20.683Z,4.40
2018-06-13T06:25:25.203Z,4.28
2018-06-13T06:26:29.534Z,4.10
2018-06-13T06:27:33.962Z,4.97
2018-06-13T06:28:38.155Z,4.35
2018-06-13T06:29:42.379Z,3.98
2018-06-13T06:30:46.669Z,4.60
2018-06-13T06:31:50.929Z,3.70
2018-06-13T06:32:55.195Z,3.75
2018-06-13T06:33:59.560Z,6.10
2018-06-13T06:35:03.898Z,3.98
2018-06-13T06:36:08.380Z,3.92
2018-06-13T06:37:12.730Z,3.85
2018-06-13T06:38:17.555Z,3.62
2018-06-13T06:39:21.877Z,3.42
2018-06-13T06:40:26.590Z,4.15
2018-06-13T06:41:31.025Z,3.85
2018-06-13T06:42:35.480Z,4.47
2018-06-13T06:43:39.745Z,4.22
2018-06-13T06:44:43.977Z,3.55
2018-06-13T06:45:48.638Z,4.20
2018-06-13T06:46:52.976Z,3.80
2018-06-13T06:47:57.195Z,4.00
2018-06-13T06:49:01.696Z,3.92
2018-06-13T06:50:06.043Z,3.22
2018-06-13T06:51:10.483Z,3.90
2018-06-13T06:52:15.022Z,3.83
2018-06-13T06:53:19.548Z,3.58
2018-06-13T06:54:23.713Z,3.87
2018-06-13T06:55:28.080Z,3.90
2018-06-13T06:56:32.241Z,3.55
2018-06-13T06:57:36.433Z,3.70
2018-06-13T06:58:40.615Z,4.87
2018-06-13T06:59:44.742Z,3.50
2018-06-13T07:00:49.123Z,3.35
2018-06-13T07:01:53.637Z,3.02
2018-06-13T07:02:57.816Z,3.35
2018-06-13T07:04:02.184Z,3.15
2018-06-13T07:05:06.327Z,3.65
2018-06-13T07:06:10.617Z,3.20
2018-06-13T07:07:14.891Z,3.27
2018-06-13T07:08:19.288Z,3.55
2018-06-13T07:09:23.444Z,4.15
2018-06-13T07:10:27.619Z,3.62
2018-06-13T07:11:31.816Z,4.62
2018-06-13T07:12:36.052Z,3.60
2018-06-13T07:13:40.234Z,3.40
2018-06-13T07:14:44.377Z,2.95
2018-06-13T07:15:49.021Z,3.30
2018-06-13T07:16:53.266Z,3.20
2018-06-13T07:17:57.455Z,3.70
2018-06-13T07:19:01.769Z,3.60
2018-06-13T07:20:05.976Z,3.70
2018-06-13T07:21:10.465Z,3.98
2018-06-13T07:22:14.764Z,3.75
2018-06-13T07:23:21.878Z,3.20
2018-06-13T07:24:29.134Z,3.00
2018-06-13T07:25:35.978Z,3.30
2018-06-13T07:26:42.926Z,3.15
2018-06-13T07:27:50.116Z,4.05
2018-06-13T07:28:57.282Z,3.00
2018-06-13T07:30:01.750Z,2.90
2018-06-13T07:31:05.557Z,3.20
2018-06-13T07:32:10.156Z,3.40
2018-06-13T07:33:14.419Z,3.55
2018-06-13T07:34:18.593Z,3.22
2018-06-13T07:35:22.900Z,2.75
2018-06-13T07:36:27.111Z,3.90
2018-06-13T07:37:31.316Z,3.47
2018-06-13T07:38:35.807Z,3.05
2018-06-13T07:39:40.093Z,2.55
2018-06-13T07:40:44.592Z,3.35
2018-06-13T07:41:48.900Z,2.87
2018-06-13T07:42:53.131Z,3.15
2018-06-13T07:43:57.331Z,3.35
2018-06-13T07:45:01.583Z,2.67
2018-06-13T07:46:05.879Z,2.60
2018-06-13T07:47:10.287Z,3.65
2018-06-13T07:48:14.439Z,2.70
2018-06-13T07:49:18.595Z,3.58
2018-06-13T07:50:22.793Z,3.75
2018-06-13T07:51:27.102Z,3.20
2018-06-13T07:52:31.367Z,2.70
2018-06-13T07:53:35.995Z,2.90
2018-06-13T07:54:40.247Z,2.92
2018-06-13T07:55:44.435Z,3.00
2018-06-13T07:56:48.682Z,2.62
2018-06-13T07:57:52.893Z,3.10
2018-06-13T07:58:57.188Z,3.10
2018-06-13T08:00:01.479Z,2.60
2018-06-13T08:01:06.132Z,2.92
2018-06-13T08:02:10.695Z,2.83
2018-06-13T08:03:14.900Z,3.45
2018-06-13T08:04:19.120Z,3.20
2018-06-13T08:05:23.372Z,2.70
2018-06-13T08:06:27.629Z,2.67
2018-06-13T08:07:31.988Z,3.30
2018-06-13T08:08:36.173Z,2.80
2018-06-13T08:09:40.431Z,2.52
2018-06-13T08:10:44.801Z,2.85
2018-06-13T08:11:49.224Z,3.30
2018-06-13T08:12:53.437Z,3.20
2018-06-13T08:13:57.618Z,3.17
2018-06-13T08:15:01.910Z,2.72
2018-06-13T08:16:06.568Z,2.80
2018-06-13T08:17:11.183Z,3.20
2018-06-13T08:18:15.408Z,3.30
2018-06-13T08:19:19.661Z,3.65
2018-06-13T08:20:24.079Z,3.47
2018-06-13T08:21:28.276Z,3.10
2018-06-13T08:22:32.496Z,3.12
2018-06-13T08:23:36.740Z,3.15
2018-06-13T08:24:52.184Z,3.70
2018-06-13T08:25:56.567Z,3.05
2018-06-13T08:27:01.064Z,2.62
2018-06-13T08:28:05.461Z,3.10
2018-06-13T08:29:10.151Z,3.25
2018-06-13T08:30:14.455Z,3.20
2018-06-13T08:31:18.676Z,3.17
2018-06-13T08:32:23.032Z,2.95
2018-06-13T08:33:27.508Z,2.98
2018-06-13T08:34:31.777Z,3.00
2018-06-13T08:35:35.999Z,2.77
2018-06-13T08:36:40.156Z,2.92
2018-06-13T08:37:44.536Z,3.40
2018-06-13T08:38:48.717Z,3.00
2018-06-13T08:39:53.017Z,3.50
2018-06-13T08:40:57.427Z,2.50
2018-06-13T08:42:01.832Z,2.65
2018-06-13T08:43:06.059Z,2.62
2018-06-13T08:44:10.244Z,3.58
2018-06-13T08:45:14.451Z,2.85
2018-06-13T08:46:18.781Z,3.83
2018-06-13T08:47:22.992Z,3.33
2018-06-13T08:48:27.959Z,3.70
2018-06-13T08:49:32.205Z,2.90
2018-06-13T08:50:36.396Z,3.33
2018-06-13T08:51:40.579Z,3.08
2018-06-13T08:52:44.827Z,2.92
2018-06-13T08:53:49.053Z,2.77
2018-06-13T08:54:53.573Z,2.50
2018-06-13T08:55:57.740Z,2.75
2018-06-13T08:57:02.115Z,3.65
2018-06-13T08:58:06.432Z,3.40
2018-06-13T08:59:10.684Z,3.87
2018-06-13T09:00:15.144Z,3.17
2018-06-13T09:01:19.324Z,3.90
2018-06-13T09:02:23.515Z,3.10
2018-06-13T09:03:27.724Z,2.98
2018-06-13T09:04:32.242Z,3.50
2018-06-13T09:05:36.408Z,3.35
2018-06-13T09:06:40.609Z,3.70
2018-06-13T09:07:44.965Z,3.15
2018-06-13T09:08:49.295Z,3.80
2018-06-13T09:09:53.607Z,2.83
2018-06-13T09:10:57.895Z,3.17
2018-06-13T09:12:02.220Z,2.80
2018-06-13T09:13:06.478Z,3.42
2018-06-13T09:14:10.858Z,3.00
2018-06-13T09:15:15.558Z,3.20
2018-06-13T09:16:20.280Z,3.00
2018-06-13T09:17:24.989Z,3.20
2018-06-13T09:18:29.423Z,3.40
2018-06-13T09:19:33.653Z,3.37
2018-06-13T09:20:38.126Z,3.20
2018-06-13T09:21:42.409Z,2.80
2018-06-13T09:22:46.634Z,3.47
2018-06-13T09:23:50.878Z,3.20
2018-06-13T09:24:55.099Z,3.30
2018-06-13T09:25:59.384Z,3.08
2018-06-13T09:27:03.623Z,3.42
2018-06-13T09:28:07.912Z,3.37
2018-06-13T09:29:12.322Z,3.40
2018-06-13T09:30:16.605Z,2.72
2018-06-13T09:31:20.920Z,3.10
2018-06-13T09:32:25.203Z,2.90
2018-06-13T09:33:29.555Z,3.02
2018-06-13T09:34:33.756Z,2.52
2018-06-13T09:35:38.284Z,3.20
2018-06-13T09:36:42.523Z,4.00
2018-06-13T09:37:46.757Z,2.42
2018-06-13T09:38:51.591Z,2.77
2018-06-13T09:39:56.165Z,2.90
2018-06-13T09:41:00.616Z,2.83
2018-06-13T09:42:05.083Z,2.65
2018-06-13T09:43:09.430Z,2.37
2018-06-13T09:44:14.044Z,2.05
2018-06-13T09:45:18.396Z,2.60
2018-06-13T09:46:22.623Z,2.15
2018-06-13T09:47:27.203Z,1.85
2018-06-13T09:48:31.955Z,2.30
2018-06-13T09:49:36.171Z,2.30
2018-06-13T09:50:40.383Z,2.40
2018-06-13T09:51:44.889Z,2.85
2018-06-13T09:52:49.570Z,2.42
2018-06-13T09:53:53.903Z,2.45
2018-06-13T09:54:58.056Z,2.25
2018-06-13T09:56:02.772Z,3.05
2018-06-13T09:57:07.160Z,2.90
2018-06-13T09:58:11.477Z,2.65
2018-06-13T09:59:19.340Z,2.80
2018-06-13T10:00:28.994Z,3.27
2018-06-13T10:01:38.472Z,2.60
2018-06-13T10:02:42.637Z,2.77
2018-06-13T10:03:47.345Z,2.30
2018-06-13T10:04:52.140Z,4.47
2018-06-13T10:05:57.035Z,3.40
2018-06-13T10:07:01.252Z,2.60
2018-06-13T10:08:05.724Z,2.60
2018-06-13T10:09:10.211Z,2.20
2018-06-13T10:10:14.488Z,2.75
2018-06-13T10:11:18.761Z,2.98
2018-06-13T10:12:23.145Z,2.40
2018-06-13T10:13:27.406Z,2.95
2018-06-13T10:14:31.623Z,2.95
2018-06-13T10:15:36.031Z,2.45
2018-06-13T10:16:40.956Z,2.75
2018-06-13T10:17:45.158Z,2.40
2018-06-13T10:18:49.401Z,2.17
2018-06-13T10:19:53.667Z,1.90
2018-06-13T10:20:57.905Z,2.35
2018-06-13T10:22:02.174Z,2.33
2018-06-13T10:23:06.667Z,3.20
2018-06-13T10:24:10.991Z,2.92
2018-06-13T10:25:15.269Z,3.00
2018-06-13T10:26:19.656Z,2.17
2018-06-13T10:27:30.264Z,2.85
2018-06-13T10:28:34.498Z,2.65
2018-06-13T10:29:38.713Z,2.50
2018-06-13T10:30:42.919Z,2.87
2018-06-13T10:31:47.336Z,3.20
2018-06-13T10:32:51.551Z,2.55
2018-06-13T10:33:55.761Z,2.70
2018-06-13T10:35:00.319Z,2.70
2018-06-13T10:36:04.770Z,2.47
2018-06-13T10:37:08.995Z,2.83
2018-06-13T10:38:13.184Z,2.65
2018-06-13T10:39:17.435Z,2.40
2018-06-13T10:40:21.652Z,2.72
2018-06-13T10:41:25.995Z,2.80
2018-06-13T10:42:30.355Z,2.58
2018-06-13T10:43:34.693Z,3.95
2018-06-13T10:44:38.895Z,2.58
2018-06-13T10:45:43.296Z,2.60
2018-06-13T10:46:47.471Z,2.80
2018-06-13T10:47:51.753Z,2.75
2018-06-13T10:48:56.067Z,2.85
2018-06-13T10:50:00.523Z,2.35
2018-06-13T10:51:04.828Z,2.45
2018-06-13T10:52:09.460Z,1.98
2018-06-13T10:53:13.713Z,1.92
2018-06-13T10:54:17.884Z,2.40
2018-06-13T10:55:22.091Z,2.20
2018-06-13T10:56:26.311Z,2.80
2018-06-13T10:57:30.608Z,2.50
2018-06-13T10:58:34.915Z,3.10
2018-06-13T10:59:39.138Z,2.37
2018-06-13T11:00:43.694Z,2.20
2018-06-13T11:01:47.964Z,2.05
2018-06-13T11:02:52.159Z,2.30
2018-06-13T11:03:56.437Z,2.20
2018-06-13T11:05:00.719Z,2.50
2018-06-13T11:06:05.108Z,2.60
2018-06-13T11:07:09.657Z,2.00
2018-06-13T11:08:14.006Z,1.92
2018-06-13T11:09:18.239Z,2.00
2018-06-13T11:10:22.808Z,2.42
2018-06-13T11:11:27.265Z,2.17
2018-06-13T11:12:31.441Z,2.17
2018-06-13T11:13:35.719Z,2.92
2018-06-13T11:14:39.899Z,2.52
2018-06-13T11:15:44.103Z,2.37
2018-06-13T11:16:49.203Z,2.60
2018-06-13T11:17:53.776Z,2.47
2018-06-13T11:18:58.484Z,2.30
2018-06-13T11:20:02.887Z,2.27
2018-06-13T11:21:07.254Z,2.05
2018-06-13T11:22:11.591Z,2.70
2018-06-13T11:23:16.508Z,2.70
2018-06-13T11:24:22.787Z,2.77
2018-06-13T11:25:27.201Z,2.35
2018-06-13T11:26:31.805Z,2.45
2018-06-13T11:27:36.020Z,1.80
2018-06-13T11:28:40.274Z,2.75
2018-06-13T11:29:44.560Z,2.70
2018-06-13T11:30:48.904Z,2.20
2018-06-13T11:31:53.833Z,2.08
2018-06-13T11:32:58.224Z,2.00
2018-06-13T11:34:02.721Z,2.25
2018-06-13T11:35:07.616Z,2.05
2018-06-13T11:36:12.025Z,2.87
2018-06-13T11:37:16.503Z,1.95
2018-06-13T11:38:20.953Z,2.50
2018-06-13T11:39:25.269Z,1.90
2018-06-13T11:40:29.664Z,2.20
2018-06-13T11:41:33.911Z,2.25
2018-06-13T11:42:38.527Z,2.15
2018-06-13T11:43:42.975Z,1.92
2018-06-13T11:44:47.348Z,2.30
2018-06-13T11:45:51.809Z,2.20
2018-06-13T11:46:56.643Z,2.40
2018-06-13T11:48:00.928Z,2.10
2018-06-13T11:49:05.436Z,2.22
2018-06-13T11:50:09.739Z,2.33
2018-06-13T11:51:14.348Z,2.22
2018-06-13T11:52:18.815Z,2.52
2018-06-13T11:53:23.096Z,2.80
2018-06-13T11:54:27.488Z,3.02
2018-06-13T11:55:31.880Z,1.92
2018-06-13T11:56:36.308Z,2.30
2018-06-13T11:57:40.548Z,2.35
2018-06-13T11:58:44.787Z,2.77
2018-06-13T11:59:49.076Z,2.10
2018-06-13T12:00:53.435Z,2.27
2018-06-13T12:01:57.775Z,2.12
2018-06-13T12:03:02.128Z,2.30
2018-06-13T12:04:06.539Z,2.30
2018-06-13T12:05:10.741Z,1.90
2018-06-13T12:06:15.244Z,2.20
2018-06-13T12:07:19.509Z,2.30
2018-06-13T12:08:23.749Z,2.20
2018-06-13T12:09:28.576Z,2.00
2018-06-13T12:10:32.805Z,4.30
2018-06-13T12:11:37.332Z,2.40
2018-06-13T12:12:41.547Z,2.62
2018-06-13T12:13:45.812Z,2.40
2018-06-13T12:14:50.591Z,3.00
2018-06-13T12:15:54.869Z,2.22
2018-06-13T12:16:59.669Z,2.33
2018-06-13T12:18:04.082Z,2.22
2018-06-13T12:19:08.720Z,2.70
2018-06-13T12:20:12.999Z,2.72
2018-06-13T12:21:17.446Z,2.15
2018-06-13T12:22:21.886Z,2.20
2018-06-13T12:23:26.119Z,2.02
2018-06-13T12:24:30.541Z,2.30
2018-06-13T12:25:34.835Z,2.35
2018-06-13T12:26:39.139Z,2.30
2018-06-13T12:27:43.419Z,2.10
2018-06-13T12:28:47.708Z,2.60
2018-06-13T12:29:52.270Z,3.72
2018-06-13T12:30:56.603Z,2.83
2018-06-13T12:32:00.859Z,2.70
2018-06-13T12:33:05.319Z,2.40
2018-06-13T12:34:09.732Z,2.92
2018-06-13T12:35:14.057Z,3.08
2018-06-13T12:36:18.339Z,3.80
2018-06-13T12:37:22.588Z,2.52
2018-06-13T12:38:26.919Z,2.60
2018-06-13T12:39:31.548Z,2.87
2018-06-13T12:40:35.814Z,2.90
2018-06-13T12:41:40.285Z,2.95
2018-06-13T12:42:44.602Z,2.72
2018-06-13T12:43:48.807Z,3.00
2018-06-13T12:44:53.239Z,3.00
2018-06-13T12:46:03.754Z,2.83
2018-06-13T12:47:08.128Z,3.00
2018-06-13T12:48:12.460Z,3.05
2018-06-13T12:49:16.861Z,2.40
2018-06-13T12:50:21.128Z,3.02
2018-06-13T12:51:25.348Z,2.60
2018-06-13T12:52:29.578Z,2.52
2018-06-13T12:53:33.832Z,2.25
2018-06-13T12:54:38.601Z,2.30
2018-06-13T12:55:42.921Z,2.95
2018-06-13T12:56:47.144Z,2.37
2018-06-13T12:57:51.355Z,3.33
2018-06-13T12:58:55.877Z,3.47
2018-06-13T12:59:59.990Z,3.00
2018-06-13T13:01:04.261Z,2.30
2018-06-13T13:02:08.529Z,2.77
2018-06-13T13:03:13.228Z,2.47
2018-06-13T13:04:17.611Z,2.55
2018-06-13T13:05:21.866Z,2.58
2018-06-13T13:06:26.335Z,3.10
2018-06-13T13:07:30.550Z,2.90
2018-06-13T13:08:35.001Z,3.20
2018-06-13T13:09:39.256Z,2.90
2018-06-13T13:10:43.533Z,3.62
2018-06-13T13:11:48.353Z,2.80
2018-06-13T13:12:52.851Z,4.45
2018-06-13T13:13:57.511Z,2.72
2018-06-13T13:15:02.191Z,2.50
2018-06-13T13:16:07.192Z,2.83
2018-06-13T13:17:12.027Z,2.10
2018-06-13T13:18:16.408Z,1.80
2018-06-13T13:19:21.461Z,2.30
2018-06-13T13:20:25.841Z,2.33
2018-06-13T13:21:30.315Z,2.30
2018-06-13T13:22:34.812Z,2.00
2018-06-13T13:23:39.168Z,2.30
2018-06-13T13:24:43.404Z,2.70
2018-06-13T13:25:47.631Z,2.50
2018-06-13T13:26:52.029Z,2.30
2018-06-13T13:27:56.306Z,2.22
2018-06-13T13:29:00.627Z,2.58
2018-06-13T13:30:05.016Z,2.65
2018-06-13T13:31:09.206Z,2.72
2018-06-13T13:32:13.399Z,2.37
2018-06-13T13:33:17.855Z,2.95
2018-06-13T13:34:22.213Z,2.80
2018-06-13T13:35:26.609Z,2.70
2018-06-13T13:36:30.979Z,2.20
2018-06-13T13:37:35.214Z,2.30
2018-06-13T13:38:39.650Z,2.75
2018-06-13T13:39:43.818Z,2.30
2018-06-13T13:40:48.073Z,2.42
2018-06-13T13:41:52.547Z,2.65
2018-06-13T13:42:56.754Z,2.45
2018-06-13T13:44:01.232Z,2.40
2018-06-13T13:45:06.298Z,2.12
2018-06-13T13:46:10.597Z,2.00
2018-06-13T13:47:15.105Z,2.10
2018-06-13T13:48:19.357Z,2.12
2018-06-13T13:49:23.534Z,2.25
2018-06-13T13:50:27.830Z,2.20
2018-06-13T13:51:32.051Z,2.00
2018-06-13T13:52:36.215Z,2.40
2018-06-13T13:53:40.410Z,2.72
2018-06-13T13:54:44.994Z,2.22
2018-06-13T13:55:49.416Z,2.60
2018-06-13T13:56:53.754Z,2.17
2018-06-13T13:57:57.969Z,2.35
2018-06-13T13:59:02.459Z,2.55
2018-06-13T14:00:06.800Z,2.50
2018-06-13T14:01:11.028Z,2.50
2018-06-13T14:02:15.209Z,2.83
2018-06-13T14:03:19.425Z,2.50
2018-06-13T14:04:23.693Z,2.45
2018-06-13T14:05:28.099Z,2.55
2018-06-13T14:06:32.326Z,2.85
2018-06-13T14:07:36.572Z,2.77
2018-06-13T14:08:40.777Z,2.55
2018-06-13T14:09:45.022Z,2.40
2018-06-13T14:10:49.396Z,2.90
2018-06-13T14:11:53.639Z,2.70
2018-06-13T14:12:58.393Z,2.17
2018-06-13T14:14:02.953Z,3.05
2018-06-13T14:15:07.295Z,3.20
2018-06-13T14:16:11.912Z,2.70
2018-06-13T14:17:16.491Z,2.60
2018-06-13T14:18:20.757Z,2.62